Pass Christian, Mississippi
Current Conditions -  °F | °C
As of 12:53 AM on Monday 22 Dec 2014 (Local Time) from KGPT Reporting Station
Haze Haze  
Wind Chill: 56°   Ceiling: 400
Heat Index: 56°   Visibility: 4mi
Dew Point: 54°   Wind: 6mph
Humidity: 93%   Direction: 70°ENE
Pressure: 29.93"   Gusts: NA
Location:  30.32°N, 89.22°W
Report Text: KGPT 220653Z 07005KT 4SM BR OVC004 13/12 A2993 RMK AO2 SLP133 T01330122
Loading
Personal Weather Stations






























Interactive Weather Map New forecast layout! Learn more

10-Day Weather Forecast

Advertisements
Track Severe Weather on mobile